Time;durP1;ratioP1;P1;durP2;ratioP2;P2;SDS_P1;SDS_P2;PMS_P1;PMS_P2;Temp;Humidity;BMP_temperature;BMP_pressure;BME280_temperature;BME280_humidity;BME280_pressure;Samples;Min_cycle;Max_cycle;Signal;HPM_P1;HPM_P2
2024/04/16 04:47:29;;;;;;;20.30;15.70;;;;;;;12.05;100.00;98847.41;111979;1248;23496;-39
2024/04/16 04:49:55;;;;;;;19.90;15.40;;;;;;;12.11;100.00;98830.13;111481;1245;22515;-39
2024/04/16 04:52:23;;;;;;;18.30;14.30;;;;;;;12.23;100.00;98843.38;110642;1248;22753;-44
2024/04/16 04:54:50;;;;;;;23.10;15.50;;;;;;;12.29;100.00;98862.11;110681;1248;24406;-38
2024/04/16 04:57:17;;;;;;;21.10;16.00;;;;;;;12.32;100.00;98869.73;110746;1248;22525;-45
2024/04/16 04:59:43;;;;;;;16.10;14.00;;;;;;;12.34;100.00;98871.92;110395;1248;22515;-39
2024/04/16 05:02:10;;;;;;;18.00;14.00;;;;;;;12.36;100.00;98874.15;110533;1248;22893;-44
2024/04/16 05:04:37;;;;;;;21.60;14.00;;;;;;;12.37;100.00;98879.69;111774;1248;23851;-43
2024/04/16 05:07:05;;;;;;;19.20;14.70;;;;;;;12.40;100.00;98878.91;110314;1248;22528;-40
2024/04/16 05:09:32;;;;;;;16.40;12.40;;;;;;;12.44;100.00;98886.48;112046;1248;23189;-38
2024/04/16 05:11:58;;;;;;;18.80;14.50;;;;;;;12.47;100.00;98890.05;112988;1248;22426;-38
2024/04/16 05:14:25;;;;;;;16.40;12.90;;;;;;;12.47;100.00;98890.58;113118;1248;22383;-38
2024/04/16 05:16:52;;;;;;;14.10;11.10;;;;;;;12.45;100.00;98895.52;112657;1248;23317;-40
2024/04/16 05:19:19;;;;;;;17.80;13.00;;;;;;;12.43;100.00;98913.25;112965;1248;22380;-39
2024/04/16 05:21:46;;;;;;;16.70;13.30;;;;;;;12.41;100.00;98907.58;112908;1248;22466;-53
2024/04/16 05:24:15;;;;;;;16.10;13.30;;;;;;;12.45;100.00;98896.23;112815;1248;23238;-46
2024/04/16 05:26:44;;;;;;;18.50;13.80;;;;;;;12.54;100.00;98897.37;112710;1248;22209;-54
2024/04/16 05:29:11;;;;;;;14.30;11.70;;;;;;;12.64;100.00;98890.77;112412;1248;22492;-52
2024/04/16 05:31:38;;;;;;;16.20;12.90;;;;;;;12.70;100.00;98883.08;112414;1248;22882;-53
2024/04/16 05:34:13;;;;;;;19.70;13.90;;;;;;;12.71;100.00;98880.23;112264;1248;22499;-46
2024/04/16 05:37:01;;;;;;;16.90;12.30;;;;;;;12.77;100.00;98875.16;112111;1248;22527;-53
2024/04/16 05:39:38;;;;;;;14.50;12.00;;;;;;;12.79;100.00;98878.95;112508;1248;23214;-53
2024/04/16 05:42:05;;;;;;;15.50;12.10;;;;;;;12.80;100.00;98878.74;112877;1248;23149;-53
2024/04/16 05:44:57;;;;;;;16.20;12.40;;;;;;;12.85;100.00;98866.34;111861;1248;22511;-44
2024/04/16 05:47:40;;;;;;;15.70;12.40;;;;;;;12.86;100.00;98872.92;112112;1248;22513;-47
2024/04/16 05:50:15;;;;;;;17.70;12.90;;;;;;;12.84;100.00;98879.83;112359;1248;22431;-53
2024/04/16 05:52:49;;;;;;;15.00;12.40;;;;;;;12.83;100.00;98884.06;112668;1248;22429;-47
2024/04/16 05:55:16;;;;;;;17.10;13.70;;;;;;;12.82;100.00;98878.87;112963;1248;22384;-45
2024/04/16 05:57:43;;;;;;;13.70;11.20;;;;;;;12.84;100.00;98868.81;112254;1248;23272;-51
2024/04/16 06:00:11;;;;;;;19.10;12.10;;;;;;;12.81;100.00;98863.12;112301;1247;22692;-53
2024/04/16 06:02:40;;;;;;;16.20;13.30;;;;;;;12.79;100.00;98862.85;112667;1248;22513;-52
2024/04/16 06:05:08;;;;;;;18.50;13.20;;;;;;;12.79;100.00;98862.66;112529;1248;22333;-53
2024/04/16 06:07:35;;;;;;;18.00;13.70;;;;;;;12.86;100.00;98859.84;112410;1248;22468;-46
2024/04/16 06:10:03;;;;;;;19.80;14.20;;;;;;;12.96;100.00;98857.23;112584;1248;25930;-53
2024/04/16 06:12:33;;;;;;;16.10;13.30;;;;;;;13.08;100.00;98861.22;112817;1248;22484;-52
2024/04/16 06:15:09;;;;;;;16.20;13.50;;;;;;;13.16;100.00;98853.77;112427;1248;22898;-46
2024/04/16 06:17:44;;;;;;;20.00;14.40;;;;;;;13.21;100.00;98840.14;111705;1248;22282;-53
2024/04/16 06:20:11;;;;;;;15.50;13.60;;;;;;;13.25;100.00;98826.36;112417;1248;22516;-45
2024/04/16 06:22:39;;;;;;;16.10;13.20;;;;;;;13.33;100.00;98824.33;112448;1248;22258;-46
2024/04/16 06:25:07;;;;;;;19.80;15.30;;;;;;;13.44;100.00;98832.38;112553;1248;22544;-53
2024/04/16 06:27:37;;;;;;;16.20;13.50;;;;;;;13.56;100.00;98832.48;112402;1248;22476;-45
2024/04/16 06:35:53;;;;;;;18.40;14.20;;;;;;;13.82;100.00;98839.42;113019;1248;23142;-46
2024/04/16 06:38:21;;;;;;;16.30;14.60;;;;;;;13.95;100.00;98838.77;112172;1247;22593;-46
2024/04/16 06:40:48;;;;;;;17.40;13.80;;;;;;;14.05;100.00;98838.05;112238;1248;22565;-46
2024/04/16 06:43:15;;;;;;;15.20;13.30;;;;;;;14.16;100.00;98837.82;112921;1248;22769;-53
2024/04/16 06:45:43;;;;;;;17.80;14.90;;;;;;;14.24;100.00;98842.59;111643;1248;22631;-45
2024/04/16 06:48:10;;;;;;;17.70;13.90;;;;;;;14.32;100.00;98834.75;112888;1248;22238;-53
2024/04/16 06:50:37;;;;;;;17.60;14.10;;;;;;;14.36;100.00;98828.78;112566;1248;22440;-45
2024/04/16 06:53:04;;;;;;;17.00;14.60;;;;;;;14.45;100.00;98827.09;112461;1248;22363;-52
2024/04/16 06:55:32;;;;;;;18.80;14.80;;;;;;;14.54;100.00;98822.02;112162;1248;22285;-46
2024/04/16 06:58:01;;;;;;;16.60;13.90;;;;;;;14.59;100.00;98812.50;112435;1248;22565;-53
2024/04/16 07:00:31;;;;;;;17.40;13.30;;;;;;;14.63;100.00;98814.61;111931;1247;23694;-45
2024/04/16 07:02:58;;;;;;;18.00;13.70;;;;;;;14.72;100.00;98824.64;112869;1248;22432;-52
2024/04/16 07:05:25;;;;;;;16.00;12.90;;;;;;;14.74;100.00;98831.56;111152;1248;22503;-53
2024/04/16 07:07:52;;;;;;;18.30;13.50;;;;;;;14.68;100.00;98831.29;112737;1247;23328;-47
2024/04/16 07:10:20;;;;;;;18.30;13.50;;;;;;;14.64;100.00;98827.59;112587;1248;22439;-53
2024/04/16 07:13:05;;;;;;;15.60;13.70;;;;;;;14.66;100.00;98840.98;112569;1248;23184;-46
2024/04/16 07:15:48;;;;;;;19.10;13.50;;;;;;;14.79;100.00;98843.61;111981;1247;22642;-44
2024/04/16 07:18:16;;;;;;;19.40;14.10;;;;;;;14.93;100.00;98847.27;112205;1248;23309;-45
2024/04/16 07:21:20;;;;;;;18.70;13.40;;;;;;;15.02;100.00;98853.95;111690;1248;23392;-46
2024/04/16 07:23:51;;;;;;;17.80;12.90;;;;;;;15.06;100.00;98857.63;112368;1248;22260;-53
2024/04/16 07:26:20;;;;;;;15.00;12.50;;;;;;;15.05;100.00;98852.61;112148;1248;23017;-46
2024/04/16 07:28:48;;;;;;;16.70;12.70;;;;;;;15.00;100.00;98849.10;111234;1247;22521;-53
2024/04/16 07:31:16;;;;;;;18.10;13.40;;;;;;;14.98;100.00;98848.67;112457;1248;23629;-54
2024/04/16 07:33:46;;;;;;;15.60;13.80;;;;;;;15.03;100.00;98842.84;112414;1248;22550;-55
2024/04/16 07:36:13;;;;;;;18.90;14.50;;;;;;;15.17;100.00;98840.67;112549;1247;183426;-45
2024/04/16 07:38:40;;;;;;;23.00;14.00;;;;;;;15.31;100.00;98837.27;110799;1248;23332;-57
2024/04/16 07:41:08;;;;;;;15.50;12.90;;;;;;;15.49;100.00;98839.69;112630;1248;23283;-57
2024/04/16 07:43:36;;;;;;;14.70;12.30;;;;;;;15.59;100.00;98840.81;112459;1248;22462;-45
2024/04/16 07:46:03;;;;;;;14.90;11.80;;;;;;;15.61;100.00;98840.39;111633;1248;22288;-56
2024/04/16 07:48:31;;;;;;;16.00;12.40;;;;;;;15.57;100.00;98834.40;112421;1248;22547;-55
2024/04/16 07:50:58;;;;;;;21.60;14.10;;;;;;;15.55;100.00;98838.55;112198;1248;22511;-54
2024/04/16 07:53:25;;;;;;;15.50;13.60;;;;;;;15.58;100.00;98847.20;112268;1248;22868;-51
2024/04/16 07:55:52;;;;;;;15.60;13.20;;;;;;;15.61;100.00;98853.73;112345;1248;22493;-55
2024/04/16 07:58:20;;;;;;;16.20;12.60;;;;;;;15.63;100.00;98857.04;112495;1248;22843;-56
2024/04/16 08:00:50;;;;;;;15.30;12.60;;;;;;;15.72;100.00;98855.92;112460;1248;22524;-53
2024/04/16 08:03:17;;;;;;;13.60;12.20;;;;;;;15.86;100.00;98855.13;112109;1248;22272;-56
2024/04/16 08:05:45;;;;;;;17.80;12.80;;;;;;;16.03;100.00;98858.09;112227;1248;22969;-53
2024/04/16 08:08:19;;;;;;;15.70;12.80;;;;;;;16.17;100.00;98861.11;112403;1248;22500;-54
2024/04/16 08:11:07;;;;;;;13.50;11.00;;;;;;;16.27;100.00;98862.98;112143;1248;22977;-52
2024/04/16 08:13:35;;;;;;;14.20;11.90;;;;;;;16.23;100.00;98858.76;112105;1249;22566;-46
2024/04/16 08:40:12;;;;;;;23.60;12.90;;;;;;;16.93;100.00;98852.52;111646;1248;22325;-53
2024/04/16 08:42:40;;;;;;;15.20;12.50;;;;;;;17.00;100.00;98847.21;112837;1248;22461;-53
2024/04/16 08:45:08;;;;;;;13.80;11.80;;;;;;;17.09;100.00;98846.60;112629;1248;23021;-53
2024/04/16 08:47:36;;;;;;;16.50;12.30;;;;;;;17.11;100.00;98848.42;112012;1248;22515;-54
2024/04/16 08:50:04;;;;;;;12.90;11.60;;;;;;;17.03;100.00;98850.92;112756;1248;22387;-54
2024/04/16 08:52:32;;;;;;;15.70;11.50;;;;;;;17.06;100.00;98842.70;112959;1248;23166;-51
2024/04/16 08:54:59;;;;;;;16.60;11.10;;;;;;;17.19;100.00;98835.85;112751;1233;22444;-44
2024/04/16 08:57:27;;;;;;;14.50;11.00;;;;;;;17.36;100.00;98833.10;112445;1249;23249;-47
2024/04/16 08:59:56;;;;;;;15.60;11.10;;;;;;;17.54;100.00;98839.92;112668;1249;22513;-46
2024/04/16 09:02:35;;;;;;;14.90;12.70;;;;;;;17.81;100.00;98836.75;112281;1248;22424;-52
2024/04/16 09:05:02;;;;;;;17.20;11.00;;;;;;;18.08;100.00;98846.10;112571;1248;22433;-46
2024/04/16 09:07:33;;;;;;;19.50;10.80;;;;;;;18.35;100.00;98842.50;112298;1248;22262;-49
2024/04/16 09:10:03;;;;;;;12.60;10.70;;;;;;;18.51;100.00;98842.52;111980;1248;22570;-45
2024/04/16 09:12:46;;;;;;;13.30;10.70;;;;;;;18.52;100.00;98833.30;112069;1247;23609;-47
2024/04/16 09:15:13;;;;;;;12.70;11.10;;;;;;;18.54;100.00;98835.31;112477;1248;25240;-52
2024/04/16 09:17:53;;;;;;;11.70;10.40;;;;;;;18.62;100.00;98835.94;112897;1248;23191;-55
2024/04/16 09:20:25;;;;;;;13.10;10.70;;;;;;;18.76;100.00;98835.90;112144;1248;23441;-46
2024/04/16 09:22:53;;;;;;;10.80;9.70;;;;;;;18.88;100.00;98832.02;111936;1248;22250;-52
2024/04/16 09:25:22;;;;;;;18.80;11.00;;;;;;;18.95;100.00;98827.00;112523;1248;22283;-44
2024/04/16 09:27:50;;;;;;;11.80;10.20;;;;;;;19.08;100.00;98827.13;112742;1248;22367;-55
2024/04/16 09:30:17;;;;;;;14.50;9.70;;;;;;;19.25;100.00;98821.59;112281;1248;22426;-52
2024/04/16 09:32:45;;;;;;;10.70;9.50;;;;;;;19.40;100.00;98825.79;112770;1248;22458;-42
2024/04/16 09:35:15;;;;;;;12.30;9.80;;;;;;;19.43;100.00;98827.41;112873;1248;23404;-45
2024/04/16 09:37:43;;;;;;;12.00;9.30;;;;;;;19.47;99.90;98831.02;112657;1248;22515;-53
2024/04/16 09:40:13;;;;;;;15.30;9.50;;;;;;;19.38;98.55;98837.23;111989;1248;22597;-51
2024/04/16 09:42:40;;;;;;;16.20;10.80;;;;;;;19.25;98.91;98837.65;112473;1248;22454;-56
2024/04/16 09:45:07;;;;;;;19.80;10.00;;;;;;;19.22;100.00;98834.29;112717;1248;22396;-52
2024/04/16 09:47:35;;;;;;;11.10;9.10;;;;;;;19.29;100.00;98835.30;112128;1248;22454;-45
2024/04/16 09:50:02;;;;;;;14.50;10.30;;;;;;;19.34;100.00;98837.10;112722;1248;22233;-46
2024/04/16 09:52:52;;;;;;;16.30;9.80;;;;;;;19.41;100.00;98834.91;112643;1248;22529;-38
2024/04/16 09:55:34;;;;;;;13.80;10.20;;;;;;;19.49;100.00;98828.98;111906;1247;22722;-45
2024/04/16 09:58:01;;;;;;;17.30;10.30;;;;;;;19.54;100.00;98827.05;112971;1248;22389;-45
2024/04/16 10:00:28;;;;;;;25.20;10.90;;;;;;;19.67;100.00;98821.92;112925;1247;22471;-39
2024/04/16 10:02:55;;;;;;;15.30;10.10;;;;;;;19.84;100.00;98816.45;112193;1248;22837;-39
2024/04/16 10:05:26;;;;;;;12.90;10.40;;;;;;;19.97;100.00;98819.38;111955;1248;25334;-41
2024/04/16 10:07:55;;;;;;;15.80;9.30;;;;;;;20.07;100.00;98813.77;112118;1248;22546;-46
2024/04/16 10:10:22;;;;;;;18.70;10.70;;;;;;;20.21;100.00;98817.35;112148;1248;22894;-46
2024/04/16 10:12:49;;;;;;;18.50;11.90;;;;;;;20.32;99.95;98814.70;112509;1248;23265;-41
2024/04/16 10:15:17;;;;;;;16.50;11.80;;;;;;;20.32;99.84;98807.45;112326;1248;23202;-45
2024/04/16 10:17:53;;;;;;;21.60;12.20;;;;;;;20.30;99.24;98809.70;112349;1248;22502;-46
2024/04/16 10:20:36;;;;;;;19.10;13.50;;;;;;;20.28;98.32;98820.97;111230;1248;22501;-45
2024/04/16 10:23:11;;;;;;;29.10;14.40;;;;;;;20.33;97.97;98822.08;111107;1248;22525;-44
2024/04/16 10:25:39;;;;;;;16.90;12.10;;;;;;;20.44;97.02;98821.73;112145;1248;22433;-41
2024/04/16 10:28:08;;;;;;;15.00;11.40;;;;;;;20.59;96.07;98817.25;112355;1247;24185;-41
2024/04/16 10:30:35;;;;;;;18.00;12.90;;;;;;;20.78;96.31;98817.26;112871;1248;22425;-41
2024/04/16 10:33:04;;;;;;;18.60;11.30;;;;;;;21.08;96.50;98816.72;112612;1247;23012;-51
2024/04/16 10:35:32;;;;;;;17.90;12.80;;;;;;;21.43;95.57;98812.25;112578;1248;23071;-50
2024/04/16 10:38:00;;;;;;;20.10;13.20;;;;;;;21.89;94.62;98810.71;112776;1247;22404;-48
2024/04/16 10:40:31;;;;;;;23.50;13.60;;;;;;;22.52;92.78;98807.29;112646;1248;22370;-43
2024/04/16 10:43:01;;;;;;;18.20;13.80;;;;;;;23.24;90.02;98805.91;112004;1248;22616;-42
2024/04/16 10:45:29;;;;;;;17.30;12.70;;;;;;;23.84;87.55;98802.54;112793;1247;22531;-50
2024/04/16 10:47:58;;;;;;;18.70;13.80;;;;;;;24.50;83.94;98798.73;112360;1248;23263;-44
2024/04/16 10:50:25;;;;;;;22.80;13.70;;;;;;;25.07;81.18;98794.73;111766;1248;22641;-47
2024/04/16 10:52:55;;;;;;;27.30;13.30;;;;;;;25.53;78.79;98799.09;112539;1248;22835;-48
2024/04/16 10:55:25;;;;;;;20.30;12.60;;;;;;;25.97;76.18;98796.81;112152;1248;22535;-52
2024/04/16 10:57:53;;;;;;;24.00;13.20;;;;;;;26.52;73.87;98797.15;111989;1248;22262;-49
2024/04/16 11:00:21;;;;;;;20.60;13.80;;;;;;;26.86;72.42;98794.21;111680;1248;23158;-52
2024/04/16 11:02:52;;;;;;;21.60;12.80;;;;;;;27.12;71.35;98787.20;112403;1248;22347;-51
2024/04/16 11:05:23;;;;;;;25.70;12.70;;;;;;;27.17;69.35;98785.19;111457;1248;23193;-52
2024/04/16 11:07:52;;;;;;;16.40;12.00;;;;;;;27.01;69.85;98782.14;112796;1249;22444;-44
2024/04/16 11:10:21;;;;;;;23.20;12.00;;;;;;;26.88;70.57;98778.00;112851;1248;22373;-52
2024/04/16 11:12:48;;;;;;;19.40;12.00;;;;;;;26.65;69.89;98774.16;112419;1248;22260;-53
2024/04/16 11:15:16;;;;;;;17.70;11.20;;;;;;;26.31;70.64;98773.05;112734;1248;22386;-54
2024/04/16 11:17:44;;;;;;;19.20;11.90;;;;;;;25.91;71.01;98769.41;112724;1248;23276;-53
2024/04/16 11:20:11;;;;;;;21.40;12.20;;;;;;;25.40;70.95;98767.06;112413;1248;22905;-53
2024/04/16 11:22:38;;;;;;;19.00;12.90;;;;;;;24.79;72.36;98761.09;112566;1248;22431;-53
2024/04/16 11:25:15;;;;;;;20.00;12.30;;;;;;;24.26;74.08;98757.33;112741;1248;22399;-51
2024/04/16 11:27:43;;;;;;;16.70;11.60;;;;;;;23.91;75.33;98752.52;112702;1248;22419;-46
2024/04/16 11:30:11;;;;;;;19.60;12.90;;;;;;;23.66;76.99;98748.05;112786;1248;22850;-45
2024/04/16 11:32:38;;;;;;;22.80;12.40;;;;;;;23.53;78.41;98737.48;112897;1248;22396;-45
2024/04/16 11:35:10;;;;;;;21.30;13.10;;;;;;;23.48;78.74;98723.84;112686;1248;22966;-45
2024/04/16 11:37:40;;;;;;;16.00;11.00;;;;;;;23.35;78.58;98718.04;112918;1248;22236;-45
2024/04/16 11:40:09;;;;;;;16.00;12.30;;;;;;;23.26;78.75;98708.47;112916;1248;23069;-45
2024/04/16 11:42:37;;;;;;;21.70;12.60;;;;;;;23.18;79.85;98710.36;112915;1248;22445;-51
2024/04/16 11:45:04;;;;;;;16.30;11.80;;;;;;;23.17;80.35;98711.98;112831;1248;22803;-44
2024/04/16 11:48:18;;;;;;;18.30;11.30;;;;;;;23.21;80.35;98702.64;112854;1248;22227;-50
2024/04/16 11:59:56;;;;;;;18.30;11.60;;;;;;;23.33;79.91;98688.37;112963;1241;23267;-43
2024/04/16 12:08:08;;;;;;;19.60;10.20;;;;;;;23.42;79.92;98680.52;112923;1247;22401;-50
2024/04/16 12:11:46;;;;;;;18.50;10.60;;;;;;;23.41;78.67;98677.76;112889;1247;23451;-46
2024/04/16 12:14:56;;;;;;;18.30;11.10;;;;;;;23.27;77.69;98669.62;112950;1248;22777;-52
2024/04/16 12:17:41;;;;;;;24.40;15.30;;;;;;;23.19;78.44;98671.80;112979;1248;22271;-53
2024/04/16 12:20:08;;;;;;;20.40;11.10;;;;;;;23.22;79.42;98665.23;112960;1248;22453;-45
2024/04/16 12:22:38;;;;;;;16.30;9.10;;;;;;;23.30;79.38;98660.14;112871;1248;22345;-45
2024/04/16 12:25:05;;;;;;;13.20;9.00;;;;;;;23.38;78.69;98657.40;112918;1248;23256;-45
2024/04/16 12:27:32;;;;;;;25.40;15.20;;;;;;;23.39;78.25;98657.84;112925;1248;23180;-45
2024/04/16 12:29:59;;;;;;;13.20;9.30;;;;;;;23.42;78.53;98665.27;112884;1244;22243;-45
2024/04/16 12:32:26;;;;;;;13.70;7.80;;;;;;;23.47;78.40;98658.42;112860;1248;22442;-45
2024/04/16 12:34:53;;;;;;;11.90;7.40;;;;;;;23.61;78.94;98659.10;112975;1248;22356;-45
2024/04/16 12:37:20;;;;;;;10.70;7.90;;;;;;;23.77;78.82;98653.73;112958;1248;22413;-45
2024/04/16 12:39:47;;;;;;;10.30;6.80;;;;;;;23.90;78.14;98651.33;113028;1248;23051;-46
2024/04/16 12:42:14;;;;;;;12.20;6.70;;;;;;;24.01;77.79;98649.90;112994;1247;22225;-52
2024/04/16 12:44:42;;;;;;;10.20;6.00;;;;;;;24.14;77.79;98650.60;113024;1248;22432;-45
2024/04/16 12:47:10;;;;;;;6.90;6.10;;;;;;;24.27;77.37;98647.35;112963;1248;22398;-45
2024/04/16 12:49:37;;;;;;;7.40;5.50;;;;;;;24.42;77.22;98651.52;113003;1248;22388;-52
2024/04/16 12:52:05;;;;;;;11.50;7.70;;;;;;;24.57;76.83;98650.66;112967;1248;22388;-45
2024/04/16 12:54:35;;;;;;;14.60;6.60;;;;;;;24.68;76.06;98644.84;113010;1248;22378;-53
2024/04/16 12:57:02;;;;;;;7.60;5.50;;;;;;;24.80;76.03;98645.48;112827;1248;22496;-45
2024/04/16 12:59:30;;;;;;;11.50;4.90;;;;;;;24.81;75.28;98642.74;111733;1248;25424;-52
2024/04/16 13:01:56;;;;;;;10.50;5.90;;;;;;;24.79;74.68;98637.75;110859;1248;25283;-51
2024/04/16 13:04:24;;;;;;;6.40;5.00;;;;;;;24.83;74.41;98636.33;111366;1248;22568;-52
2024/04/16 13:06:51;;;;;;;10.90;5.10;;;;;;;24.87;74.52;98638.25;111315;1248;25325;-45
2024/04/16 13:09:18;;;;;;;11.30;5.60;;;;;;;24.93;73.97;98638.08;110601;1248;22669;-51
2024/04/16 13:11:45;;;;;;;10.40;5.40;;;;;;;25.05;73.63;98635.67;110646;1248;22358;-52
2024/04/16 13:14:13;;;;;;;11.50;5.60;;;;;;;25.10;73.57;98629.00;111615;1248;22686;-44
2024/04/16 13:16:41;;;;;;;7.20;4.60;;;;;;;25.09;74.06;98631.41;112505;1248;22556;-46
2024/04/16 13:19:08;;;;;;;7.30;5.00;;;;;;;25.05;73.33;98638.72;111468;1248;22522;-49
2024/04/16 13:21:35;;;;;;;8.00;4.90;;;;;;;25.04;73.07;98638.26;110757;1248;22516;-52
2024/04/16 13:24:02;;;;;;;5.80;4.80;;;;;;;25.00;73.84;98638.63;110913;1232;25418;-45
2024/04/16 13:26:30;;;;;;;11.50;5.10;;;;;;;25.03;73.51;98636.73;112423;1234;24277;-45
2024/04/16 13:28:57;;;;;;;7.90;5.00;;;;;;;24.94;73.27;98637.13;113085;1248;23295;-44
2024/04/16 13:31:24;;;;;;;12.70;6.90;;;;;;;24.89;73.47;98636.11;113104;1248;22532;-45
2024/04/16 13:33:51;;;;;;;14.50;8.50;;;;;;;24.86;74.46;98632.29;112972;1248;22423;-44
2024/04/16 13:36:18;;;;;;;11.60;8.80;;;;;;;24.70;75.18;98629.60;111939;1248;22466;-53
2024/04/16 13:38:45;;;;;;;15.30;9.90;;;;;;;24.46;75.38;98628.70;113018;1248;22180;-53
2024/04/16 13:41:11;;;;;;;16.50;10.50;;;;;;;24.15;77.35;98628.23;113020;1248;22412;-52
2024/04/16 13:43:38;;;;;;;13.70;9.80;;;;;;;23.90;78.40;98632.56;113032;1248;22402;-52
2024/04/16 13:46:05;;;;;;;13.70;9.60;;;;;;;23.80;78.87;98634.10;113062;1240;22381;-53
2024/04/16 13:48:32;;;;;;;16.20;9.80;;;;;;;23.81;79.09;98634.23;113061;1248;22440;-52
2024/04/16 13:51:02;;;;;;;17.80;10.40;;;;;;;23.80;79.60;98636.58;112973;1248;22232;-53
2024/04/16 13:53:29;;;;;;;13.90;9.50;;;;;;;23.82;79.57;98641.41;112995;1248;22365;-52
2024/04/16 13:55:57;;;;;;;14.10;9.30;;;;;;;23.99;78.93;98643.95;112939;1248;22388;-44
2024/04/16 13:58:24;;;;;;;12.40;8.50;;;;;;;24.04;78.07;98641.64;113032;1248;22376;-46
2024/04/16 14:00:51;;;;;;;15.60;9.20;;;;;;;23.91;78.13;98639.84;112988;1248;22378;-44
2024/04/16 14:03:19;;;;;;;13.00;8.10;;;;;;;23.84;78.14;98638.25;113036;1248;22985;-44
2024/04/16 14:05:47;;;;;;;19.10;9.00;;;;;;;23.81;78.82;98636.38;113031;1248;22454;-44
2024/04/16 14:08:14;;;;;;;15.10;8.70;;;;;;;23.80;78.38;98638.17;112903;1248;22395;-52
2024/04/16 14:10:41;;;;;;;11.10;8.10;;;;;;;23.81;78.79;98641.65;113003;1248;23077;-51
2024/04/16 14:13:08;;;;;;;13.40;8.90;;;;;;;23.91;78.10;98640.67;113036;1248;22471;-53
2024/04/16 14:15:35;;;;;;;18.10;8.90;;;;;;;24.21;77.51;98642.16;113051;1248;22506;-45
2024/04/16 14:18:02;;;;;;;17.80;8.70;;;;;;;24.49;76.18;98639.30;111501;1248;24240;-45
2024/04/16 14:20:29;;;;;;;15.30;9.70;;;;;;;24.69;75.41;98638.02;111091;1248;22527;-53
